createdAt,value
2018-04-14T00:00:35.144Z,48.47
2018-04-14T00:01:35.100Z,48.4
2018-04-14T00:02:34.966Z,48.29
2018-04-14T00:03:34.962Z,48.48
2018-04-14T00:04:35.137Z,48.45
2018-04-14T00:05:35.077Z,48.31
2018-04-14T00:06:35.324Z,48.48
2018-04-14T00:07:35.161Z,48.41
2018-04-14T00:08:35.107Z,48.29
2018-04-14T00:09:35.152Z,48.43
2018-04-14T00:10:35.152Z,48.44
2018-04-14T00:11:35.066Z,48.28
2018-04-14T00:12:35.116Z,48.44
2018-04-14T00:13:35.074Z,48.41
2018-04-14T00:14:35.062Z,48.32
2018-04-14T00:15:35.194Z,48.5
2018-04-14T00:16:35.053Z,48.42
2018-04-14T00:17:35.047Z,48.31
2018-04-14T00:18:35.049Z,48.45
2018-04-14T00:19:35.148Z,48.42
2018-04-14T00:20:35.311Z,48.32
2018-04-14T00:21:35.096Z,48.48
2018-04-14T00:22:34.994Z,48.38
2018-04-14T00:23:35.143Z,48.27
2018-04-14T00:24:35.000Z,48.46
2018-04-14T00:25:35.145Z,48.38
2018-04-14T00:26:35.136Z,48.29
2018-04-14T00:27:35.076Z,48.36
2018-04-14T00:28:35.256Z,48.38
2018-04-14T00:29:35.235Z,48.3
2018-04-14T00:30:34.973Z,48.39
2018-04-14T00:31:35.159Z,48.38
2018-04-14T00:32:35.249Z,48.31
2018-04-14T00:33:35.211Z,48.44
2018-04-14T00:34:35.127Z,48.4
2018-04-14T00:35:35.212Z,48.29
2018-04-14T00:36:35.365Z,48.46
2018-04-14T00:37:35.098Z,48.39
2018-04-14T00:38:35.059Z,48.29
2018-04-14T00:39:35.120Z,48.48
2018-04-14T00:40:35.074Z,48.38
2018-04-14T00:41:35.090Z,48.26
2018-04-14T00:42:35.051Z,48.41
2018-04-14T00:43:35.179Z,48.38
2018-04-14T00:44:35.031Z,48.29
2018-04-14T00:45:35.060Z,48.5
2018-04-14T00:46:34.998Z,48.4
2018-04-14T00:47:35.087Z,48.25
2018-04-14T00:48:35.035Z,48.39
2018-04-14T00:49:35.207Z,48.34
2018-04-14T00:50:35.390Z,48.24
2018-04-14T00:51:35.066Z,48.41
2018-04-14T00:52:35.030Z,48.33
2018-04-14T00:53:35.174Z,48.33
2018-04-14T00:54:37.184Z,48.41
2018-04-14T00:55:35.219Z,48.42
2018-04-14T00:56:35.316Z,48.31
2018-04-14T00:57:35.133Z,48.43
2018-04-14T00:58:35.186Z,48.38
2018-04-14T00:59:35.132Z,48.28
2018-04-14T01:00:35.087Z,48.4
2018-04-14T01:01:35.103Z,48.37
2018-04-14T01:02:35.029Z,48.25
2018-04-14T01:03:35.151Z,48.42
2018-04-14T01:04:35.020Z,48.38
2018-04-14T01:05:34.925Z,48.32
2018-04-14T01:06:35.146Z,48.4
2018-04-14T01:07:35.110Z,48.37
2018-04-14T01:08:34.982Z,48.32
2018-04-14T01:09:35.011Z,48.46
2018-04-14T01:10:35.193Z,48.38
2018-04-14T01:11:35.135Z,48.27
2018-04-14T01:12:34.933Z,48.42
2018-04-14T01:13:35.095Z,48.39
2018-04-14T01:14:35.052Z,48.38
2018-04-14T01:15:35.174Z,48.46
2018-04-14T01:16:35.154Z,48.42
2018-04-14T01:17:35.047Z,48.3
2018-04-14T01:18:35.037Z,48.46
2018-04-14T01:19:35.195Z,48.41
2018-04-14T01:20:35.142Z,48.24
2018-04-14T01:21:34.967Z,48.4
2018-04-14T01:22:35.016Z,48.4
2018-04-14T01:23:35.100Z,48.27
2018-04-14T01:24:34.992Z,48.42
2018-04-14T01:25:35.156Z,48.4
2018-04-14T01:26:35.194Z,48.35
2018-04-14T01:27:35.365Z,48.42
2018-04-14T01:28:35.040Z,48.41
2018-04-14T01:29:35.072Z,48.3
2018-04-14T01:30:34.940Z,48.44
2018-04-14T01:31:35.062Z,48.39
2018-04-14T01:32:35.171Z,48.28
2018-04-14T01:33:34.915Z,48.48
2018-04-14T01:34:35.118Z,48.4
2018-04-14T01:35:35.124Z,48.28
2018-04-14T01:36:35.048Z,48.43
2018-04-14T01:37:35.456Z,48.34
2018-04-14T01:38:35.068Z,48.3
2018-04-14T01:39:35.093Z,48.51
2018-04-14T01:40:35.007Z,48.43
2018-04-14T01:41:34.977Z,48.31
2018-04-14T01:42:35.091Z,48.45
2018-04-14T01:43:34.997Z,48.38
2018-04-14T01:44:35.166Z,48.26
2018-04-14T01:45:35.248Z,48.41
2018-04-14T01:46:35.037Z,48.38
2018-04-14T01:47:35.168Z,48.28
2018-04-14T01:48:35.157Z,48.37
2018-04-14T01:49:35.203Z,48.38
2018-04-14T01:50:35.009Z,48.33
2018-04-14T01:51:35.093Z,48.42
2018-04-14T01:52:35.186Z,48.43
2018-04-14T01:53:34.994Z,48.27
2018-04-14T01:54:34.939Z,48.43
2018-04-14T01:55:34.967Z,48.37
2018-04-14T01:56:35.183Z,48.31
2018-04-14T01:57:35.019Z,48.45
2018-04-14T01:58:35.051Z,48.38
2018-04-14T01:59:35.037Z,48.3
2018-04-14T02:00:35.049Z,48.41
2018-04-14T02:01:34.967Z,48.41
2018-04-14T02:02:34.979Z,48.3
2018-04-14T02:03:34.979Z,48.44
2018-04-14T02:04:34.925Z,48.38
2018-04-14T02:05:35.187Z,48.31
2018-04-14T02:06:35.156Z,48.42
2018-04-14T02:07:35.005Z,48.38
2018-04-14T02:08:35.099Z,48.28
2018-04-14T02:09:35.089Z,48.4
2018-04-14T02:10:35.102Z,48.42
2018-04-14T02:11:34.998Z,48.33
2018-04-14T02:12:35.106Z,48.44
2018-04-14T02:13:35.100Z,48.44
2018-04-14T02:14:35.200Z,48.31
2018-04-14T02:15:35.106Z,48.45
2018-04-14T02:16:35.194Z,48.42
2018-04-14T02:17:35.022Z,48.32
2018-04-14T02:18:34.953Z,48.51
2018-04-14T02:19:35.107Z,48.44
2018-04-14T02:20:35.200Z,48.34
2018-04-14T02:21:35.140Z,48.44
2018-04-14T02:22:35.051Z,48.44
2018-04-14T02:23:35.091Z,48.28
2018-04-14T02:24:35.231Z,48.42
2018-04-14T02:25:34.945Z,48.41
2018-04-14T02:26:35.095Z,48.33
2018-04-14T02:27:35.119Z,48.44
2018-04-14T02:28:35.161Z,48.44
2018-04-14T02:29:35.115Z,48.35
2018-04-14T02:30:34.944Z,48.49
2018-04-14T02:31:35.455Z,48.46
2018-04-14T02:32:35.507Z,48.35
2018-04-14T02:33:35.139Z,48.44
2018-04-14T02:34:35.188Z,48.44
2018-04-14T02:35:35.048Z,48.38
2018-04-14T02:36:35.104Z,48.48
2018-04-14T02:37:35.081Z,48.43
2018-04-14T02:38:35.205Z,48.31
2018-04-14T02:39:35.121Z,48.49
2018-04-14T02:40:34.947Z,48.43
2018-04-14T02:41:35.161Z,48.33
2018-04-14T02:42:35.245Z,48.45
2018-04-14T02:43:35.101Z,48.41
2018-04-14T02:44:34.962Z,48.36
2018-04-14T02:45:35.072Z,48.46
2018-04-14T02:46:35.218Z,48.44
2018-04-14T02:47:35.145Z,48.37
2018-04-14T02:48:34.994Z,48.42
2018-04-14T02:49:35.115Z,48.49
2018-04-14T02:50:35.164Z,48.38
2018-04-14T02:51:35.123Z,48.45
2018-04-14T02:52:35.146Z,48.42
2018-04-14T02:53:35.222Z,48.36
2018-04-14T02:54:35.208Z,48.44
2018-04-14T02:55:35.193Z,48.43
2018-04-14T02:56:35.122Z,48.35
2018-04-14T02:57:35.145Z,48.43
2018-04-14T02:58:35.297Z,48.45
2018-04-14T02:59:35.236Z,48.32
2018-04-14T03:00:34.939Z,48.52
2018-04-14T03:01:35.226Z,48.48
2018-04-14T03:02:34.977Z,48.37
2018-04-14T03:03:35.089Z,48.42
2018-04-14T03:04:34.945Z,48.43
2018-04-14T03:05:35.000Z,48.37
2018-04-14T03:06:35.091Z,48.43
2018-04-14T03:07:35.072Z,48.41
2018-04-14T03:08:35.112Z,48.31
2018-04-14T03:09:35.143Z,48.5
2018-04-14T03:10:35.051Z,48.5
2018-04-14T03:11:35.244Z,48.33
2018-04-14T03:12:35.200Z,48.42
2018-04-14T03:13:34.983Z,48.46
2018-04-14T03:14:34.946Z,48.38
2018-04-14T03:15:35.024Z,48.43
2018-04-14T03:16:35.116Z,48.47
2018-04-14T03:17:34.978Z,48.36
2018-04-14T03:18:35.285Z,48.47
2018-04-14T03:19:35.127Z,48.49
2018-04-14T03:20:35.257Z,48.37
2018-04-14T03:21:35.186Z,48.49
2018-04-14T03:22:34.969Z,48.47
2018-04-14T03:23:35.026Z,48.38
2018-04-14T03:24:35.175Z,48.44
2018-04-14T03:25:35.187Z,48.51
2018-04-14T03:26:34.936Z,48.41
2018-04-14T03:27:35.124Z,48.49
2018-04-14T03:28:34.957Z,48.51
2018-04-14T03:29:35.086Z,48.35
2018-04-14T03:30:35.072Z,48.44
2018-04-14T03:31:35.176Z,48.44
2018-04-14T03:32:35.024Z,48.4
2018-04-14T03:33:35.107Z,48.46
2018-04-14T03:34:35.002Z,48.47
2018-04-14T03:35:34.989Z,48.38
2018-04-14T03:36:34.965Z,48.47
2018-04-14T03:37:35.033Z,48.45
2018-04-14T03:38:35.050Z,48.36
2018-04-14T03:39:35.011Z,48.49
2018-04-14T03:40:35.421Z,48.41
2018-04-14T03:41:35.090Z,48.33
2018-04-14T03:42:34.899Z,48.47
2018-04-14T03:43:35.024Z,48.48
2018-04-14T03:44:34.994Z,48.3
2018-04-14T03:45:34.974Z,48.38
2018-04-14T03:46:35.032Z,48.43
2018-04-14T03:47:35.036Z,48.31
2018-04-14T03:48:35.225Z,48.41
2018-04-14T03:49:35.109Z,48.37
2018-04-14T03:50:34.929Z,48.28
2018-04-14T03:51:34.994Z,48.38
2018-04-14T03:52:34.998Z,48.45
2018-04-14T03:53:35.070Z,48.25
2018-04-14T03:54:34.991Z,48.36
2018-04-14T03:55:35.185Z,48.33
2018-04-14T03:56:34.929Z,48.24
2018-04-14T03:57:35.035Z,48.39
2018-04-14T03:58:35.084Z,48.35
2018-04-14T03:59:35.002Z,48.2
2018-04-14T04:00:35.062Z,48.37
2018-04-14T04:01:35.105Z,48.35
2018-04-14T04:02:35.040Z,48.26
2018-04-14T04:03:35.116Z,48.42
2018-04-14T04:04:34.981Z,48.44
2018-04-14T04:05:35.040Z,48.33
2018-04-14T04:06:35.143Z,48.39
2018-04-14T04:07:35.101Z,48.32
2018-04-14T04:08:34.993Z,48.27
2018-04-14T04:09:35.063Z,48.38
2018-04-14T04:10:34.912Z,48.29
2018-04-14T04:11:35.170Z,48.21
2018-04-14T04:12:35.010Z,48.17
2018-04-14T04:13:35.050Z,48.13
2018-04-14T04:14:34.984Z,48.08
2018-04-14T04:15:35.030Z,48.04
2018-04-14T04:16:35.098Z,47.98
2018-04-14T04:17:35.099Z,48.03
2018-04-14T04:18:35.070Z,48.04
2018-04-14T04:19:34.894Z,48
2018-04-14T04:20:35.055Z,47.94
2018-04-14T04:21:34.985Z,48.06
2018-04-14T04:22:35.065Z,48.01
2018-04-14T04:23:35.076Z,47.96
2018-04-14T04:24:36.409Z,48.06
2018-04-14T04:25:34.976Z,48.02
2018-04-14T04:26:35.073Z,47.94
2018-04-14T04:27:35.230Z,48
2018-04-14T04:28:35.119Z,48.04
2018-04-14T04:29:35.019Z,47.99
2018-04-14T04:30:35.021Z,48.01
2018-04-14T04:31:34.883Z,48.08
2018-04-14T04:32:35.064Z,48.06
2018-04-14T04:33:35.039Z,48.06
2018-04-14T04:34:35.029Z,48.04
2018-04-14T04:35:35.165Z,47.98
2018-04-14T04:36:35.077Z,48.03
2018-04-14T04:37:35.275Z,48.04
2018-04-14T04:38:34.888Z,47.94
2018-04-14T04:39:35.114Z,48.13
2018-04-14T04:40:35.045Z,47.95
2018-04-14T04:41:34.988Z,47.84
2018-04-14T04:42:34.990Z,48.1
2018-04-14T04:43:35.046Z,47.98
2018-04-14T04:44:35.112Z,48
2018-04-14T04:45:34.932Z,48.07
2018-04-14T04:46:35.206Z,48.08
2018-04-14T04:47:35.019Z,48.02
2018-04-14T04:48:35.069Z,47.98
2018-04-14T04:49:35.025Z,48.07
2018-04-14T04:50:34.981Z,48
2018-04-14T04:51:35.095Z,47.97
2018-04-14T04:52:34.868Z,48.02
2018-04-14T04:53:35.179Z,47.94
2018-04-14T04:54:34.932Z,48.01
2018-04-14T04:55:34.989Z,48.04
2018-04-14T04:56:35.219Z,48.04
2018-04-14T04:57:35.144Z,47.93
2018-04-14T04:58:35.687Z,48.04
2018-04-14T04:59:35.065Z,47.88
2018-04-14T05:00:34.932Z,47.87
2018-04-14T05:01:35.118Z,47.94
2018-04-14T05:02:34.991Z,47.97
2018-04-14T05:03:35.020Z,48
2018-04-14T05:04:35.074Z,48.02
2018-04-14T05:05:35.136Z,47.82
2018-04-14T05:06:34.897Z,47.99
2018-04-14T05:07:35.005Z,48.01
2018-04-14T05:08:35.012Z,47.92
2018-04-14T05:09:34.972Z,48.05
2018-04-14T05:10:35.065Z,47.88
2018-04-14T05:11:35.043Z,47.94
2018-04-14T05:12:35.050Z,47.99
2018-04-14T05:13:35.099Z,47.99
2018-04-14T05:14:34.914Z,48
2018-04-14T05:15:34.996Z,47.99
2018-04-14T05:16:34.949Z,48
2018-04-14T05:17:34.883Z,47.93
2018-04-14T05:18:34.951Z,47.96
2018-04-14T05:19:34.897Z,47.92
2018-04-14T05:20:34.922Z,47.92
2018-04-14T05:21:34.919Z,47.8
2018-04-14T05:22:34.993Z,47.91
2018-04-14T05:23:35.191Z,47.94
2018-04-14T05:24:35.070Z,47.96
2018-04-14T05:25:35.047Z,47.83
2018-04-14T05:26:35.185Z,47.96
2018-04-14T05:27:35.058Z,47.89
2018-04-14T05:28:34.861Z,47.84
2018-04-14T05:29:35.174Z,47.82
2018-04-14T05:30:35.041Z,47.82
2018-04-14T05:31:34.971Z,47.82
2018-04-14T05:32:35.156Z,47.77
2018-04-14T05:33:34.984Z,47.86
2018-04-14T05:34:34.940Z,47.85
2018-04-14T05:35:34.948Z,47.85
2018-04-14T05:36:34.944Z,47.85
2018-04-14T05:37:35.613Z,47.82
2018-04-14T05:38:35.131Z,47.82
2018-04-14T05:39:34.864Z,47.85
2018-04-14T05:40:35.180Z,47.8
2018-04-14T05:41:34.972Z,47.84
2018-04-14T05:42:35.100Z,47.79
2018-04-14T05:43:35.172Z,47.82
2018-04-14T05:44:35.120Z,47.76
2018-04-14T05:45:34.979Z,47.79
2018-04-14T05:46:35.008Z,47.8
2018-04-14T05:47:35.114Z,47.78
2018-04-14T05:48:34.893Z,47.8
2018-04-14T05:49:35.123Z,47.83
2018-04-14T05:50:35.115Z,47.77
2018-04-14T05:51:35.106Z,47.69
2018-04-14T05:52:35.386Z,47.72
2018-04-14T05:53:35.079Z,47.72
2018-04-14T05:54:35.225Z,47.73
2018-04-14T05:55:34.991Z,47.71
2018-04-14T05:56:35.052Z,47.66
2018-04-14T05:57:34.913Z,47.76
2018-04-14T05:58:34.989Z,47.63
2018-04-14T05:59:35.043Z,47.69
2018-04-14T06:00:35.076Z,47.66
2018-04-14T06:01:35.031Z,47.69
2018-04-14T06:02:34.944Z,47.66
2018-04-14T06:03:35.232Z,47.72
2018-04-14T06:04:34.987Z,47.66
2018-04-14T06:05:35.121Z,47.63
2018-04-14T06:06:34.914Z,47.64
2018-04-14T06:07:35.026Z,47.65
2018-04-14T06:08:35.028Z,47.6
2018-04-14T06:09:34.936Z,47.72
2018-04-14T06:10:35.102Z,47.71
2018-04-14T06:11:35.203Z,47.68
2018-04-14T06:12:35.094Z,47.62
2018-04-14T06:13:34.998Z,47.68
2018-04-14T06:14:35.116Z,47.66
2018-04-14T06:15:34.960Z,47.76
2018-04-14T06:16:34.877Z,47.66
2018-04-14T06:17:35.033Z,47.68
2018-04-14T06:18:35.096Z,47.7
2018-04-14T06:19:34.899Z,47.62
2018-04-14T06:20:34.981Z,47.62
2018-04-14T06:21:35.023Z,47.73
2018-04-14T06:22:35.051Z,47.69
2018-04-14T06:23:35.062Z,47.64
2018-04-14T06:24:35.060Z,47.71
2018-04-14T06:25:34.881Z,47.66
2018-04-14T06:26:34.956Z,47.66
2018-04-14T06:27:35.047Z,47.73
2018-04-14T06:28:35.075Z,47.68
2018-04-14T06:29:35.039Z,47.65
2018-04-14T06:30:34.914Z,47.76
2018-04-14T06:31:34.988Z,47.64
2018-04-14T06:32:35.442Z,47.6
2018-04-14T06:33:35.013Z,47.73
2018-04-14T06:34:35.001Z,47.69
2018-04-14T06:35:35.086Z,47.64
2018-04-14T06:36:35.059Z,47.69
2018-04-14T06:37:34.923Z,47.69
2018-04-14T06:38:34.945Z,47.62
2018-04-14T06:39:35.017Z,47.76
2018-04-14T06:40:34.871Z,47.68
2018-04-14T06:41:34.978Z,47.57
2018-04-14T06:42:34.977Z,47.72
2018-04-14T06:43:35.249Z,47.63
2018-04-14T06:44:34.985Z,47.58
2018-04-14T06:45:35.000Z,47.66
2018-04-14T06:46:35.022Z,47.65
2018-04-14T06:47:34.903Z,47.68
2018-04-14T06:48:34.970Z,47.72
2018-04-14T06:49:34.983Z,47.67
2018-04-14T06:50:35.085Z,47.61
2018-04-14T06:51:34.948Z,47.73
2018-04-14T06:52:34.834Z,47.68
2018-04-14T06:53:35.123Z,47.64
2018-04-14T06:54:34.997Z,47.71
2018-04-14T06:55:35.123Z,47.63
2018-04-14T06:56:34.986Z,47.59
2018-04-14T06:57:35.086Z,47.73
2018-04-14T06:58:34.848Z,47.65
2018-04-14T06:59:35.018Z,47.59
2018-04-14T07:00:35.230Z,47.68
2018-04-14T07:01:35.005Z,47.63
2018-04-14T07:02:34.998Z,47.65
2018-04-14T07:03:35.077Z,47.71
2018-04-14T07:04:35.259Z,47.62
2018-04-14T07:05:34.948Z,47.63
2018-04-14T07:06:35.096Z,47.68
2018-04-14T07:07:34.956Z,47.68
2018-04-14T07:08:35.077Z,47.63
2018-04-14T07:09:34.887Z,47.76
2018-04-14T07:10:34.972Z,47.71
2018-04-14T07:11:34.948Z,47.65
2018-04-14T07:12:34.868Z,47.77
2018-04-14T07:13:34.954Z,47.68
2018-04-14T07:14:35.112Z,47.67
2018-04-14T07:15:34.943Z,47.79
2018-04-14T07:16:34.910Z,47.66
2018-04-14T07:17:35.023Z,47.63
2018-04-14T07:18:34.955Z,47.75
2018-04-14T07:19:34.849Z,47.72
2018-04-14T07:20:35.228Z,47.68
2018-04-14T07:21:34.952Z,47.76
2018-04-14T07:22:34.928Z,47.68
2018-04-14T07:23:35.026Z,47.65
2018-04-14T07:24:34.935Z,47.73
2018-04-14T07:25:35.216Z,47.77
2018-04-14T07:26:34.879Z,47.64
2018-04-14T07:27:34.956Z,47.78
2018-04-14T07:28:34.946Z,47.7
2018-04-14T07:29:35.097Z,47.69
2018-04-14T07:30:34.959Z,47.78
2018-04-14T07:31:34.993Z,47.72
2018-04-14T07:32:34.993Z,47.71
2018-04-14T07:33:34.994Z,47.76
2018-04-14T07:34:34.845Z,47.76
2018-04-14T07:35:34.883Z,47.65
2018-04-14T07:36:35.061Z,47.75
2018-04-14T07:37:37.377Z,47.71
2018-04-14T07:38:35.112Z,47.66
2018-04-14T07:39:35.010Z,47.77
2018-04-14T07:40:35.124Z,47.72
2018-04-14T07:41:35.090Z,47.71
2018-04-14T07:42:34.957Z,47.76
2018-04-14T07:43:34.961Z,47.74
2018-04-14T07:44:34.837Z,47.63
2018-04-14T07:45:34.944Z,47.77
2018-04-14T07:46:34.976Z,47.73
2018-04-14T07:47:34.935Z,47.69
2018-04-14T07:48:35.031Z,47.77
2018-04-14T07:49:35.065Z,47.76
2018-04-14T07:50:35.001Z,47.69
2018-04-14T07:51:35.034Z,47.82
2018-04-14T07:52:35.214Z,47.77
2018-04-14T07:53:34.987Z,47.68
2018-04-14T07:54:35.089Z,47.76
2018-04-14T07:55:34.919Z,47.79
2018-04-14T07:56:34.930Z,47.75
2018-04-14T07:57:35.056Z,47.88
2018-04-14T07:58:34.909Z,47.77
2018-04-14T07:59:35.024Z,47.68
2018-04-14T08:00:35.069Z,47.78
2018-04-14T08:01:34.929Z,47.78
2018-04-14T08:02:35.037Z,47.67
2018-04-14T08:03:34.827Z,47.79
2018-04-14T08:04:34.906Z,47.77
2018-04-14T08:05:34.843Z,47.74
2018-04-14T08:06:34.953Z,47.82
2018-04-14T08:07:34.997Z,47.77
2018-04-14T08:08:35.093Z,47.71
2018-04-14T08:09:34.877Z,47.84
2018-04-14T08:10:34.900Z,47.78
2018-04-14T08:11:35.379Z,47.66
2018-04-14T08:12:35.099Z,47.84
2018-04-14T08:13:35.020Z,47.75
2018-04-14T08:14:34.986Z,47.71
2018-04-14T08:15:34.907Z,47.82
2018-04-14T08:16:35.021Z,47.82
2018-04-14T08:17:34.866Z,47.71
2018-04-14T08:18:34.836Z,47.88
2018-04-14T08:19:34.833Z,47.75
2018-04-14T08:20:34.916Z,47.73
2018-04-14T08:21:35.078Z,47.88
2018-04-14T08:22:35.057Z,47.77
2018-04-14T08:23:34.875Z,47.73
2018-04-14T08:24:35.039Z,47.93
2018-04-14T08:25:34.835Z,47.86
2018-04-14T08:26:35.137Z,47.77
2018-04-14T08:27:35.124Z,47.9
2018-04-14T08:28:34.952Z,47.82
2018-04-14T08:29:34.948Z,47.82
2018-04-14T08:30:34.904Z,47.96
2018-04-14T08:31:35.043Z,47.89
2018-04-14T08:32:34.877Z,47.79
2018-04-14T08:33:34.800Z,47.97
2018-04-14T08:34:34.943Z,47.93
2018-04-14T08:35:35.118Z,47.83
2018-04-14T08:36:34.854Z,47.97
2018-04-14T08:37:34.960Z,47.93
2018-04-14T08:38:35.042Z,47.84
2018-04-14T08:39:35.022Z,47.96
2018-04-14T08:40:34.891Z,47.93
2018-04-14T08:41:35.042Z,47.86
2018-04-14T08:42:34.903Z,48
2018-04-14T08:43:35.110Z,47.93
2018-04-14T08:44:35.085Z,47.87
2018-04-14T08:45:34.887Z,48
2018-04-14T08:46:34.922Z,47.95
2018-04-14T08:47:35.659Z,47.94
2018-04-14T08:48:34.941Z,48.03
2018-04-14T08:49:34.893Z,47.99
2018-04-14T08:50:34.930Z,47.92
2018-04-14T08:51:35.018Z,48.04
2018-04-14T08:52:35.059Z,48
2018-04-14T08:53:34.897Z,47.93
2018-04-14T08:54:35.035Z,48.04
2018-04-14T08:55:34.959Z,47.99
2018-04-14T08:56:34.873Z,47.91
2018-04-14T08:57:34.977Z,48
2018-04-14T08:58:34.880Z,47.97
2018-04-14T08:59:34.874Z,47.91
2018-04-14T09:00:34.947Z,48.06
2018-04-14T09:01:34.881Z,48.03
2018-04-14T09:02:35.041Z,47.94
2018-04-14T09:03:35.036Z,48.09
2018-04-14T09:04:34.942Z,48.05
2018-04-14T09:05:35.058Z,47.98
2018-04-14T09:06:34.948Z,48.14
2018-04-14T09:07:34.913Z,48.11
2018-04-14T09:08:35.057Z,48.25
2018-04-14T09:09:35.066Z,48.57
2018-04-14T09:10:34.847Z,48.63
2018-04-14T09:11:34.918Z,48.48
2018-04-14T09:12:34.971Z,48.64
2018-04-14T09:13:34.867Z,48.53
2018-04-14T09:14:34.995Z,48.53
2018-04-14T09:15:34.842Z,48.52
2018-04-14T09:16:34.928Z,48.56
2018-04-14T09:17:35.028Z,48.47
2018-04-14T09:18:34.834Z,48.59
2018-04-14T09:19:34.871Z,48.56
2018-04-14T09:20:35.021Z,48.46
2018-04-14T09:21:34.880Z,48.52
2018-04-14T09:22:34.842Z,48.6
2018-04-14T09:23:35.077Z,48.49
2018-04-14T09:24:34.857Z,48.55
2018-04-14T09:25:34.952Z,48.59
2018-04-14T09:26:34.970Z,48.8
2018-04-14T09:27:34.903Z,48.55
2018-04-14T09:28:35.049Z,48.54
2018-04-14T09:29:34.809Z,48.42
2018-04-14T09:30:34.929Z,48.39
2018-04-14T09:31:34.917Z,48.36
2018-04-14T09:32:34.969Z,48.32
2018-04-14T09:33:35.060Z,48.37
2018-04-14T09:34:35.090Z,48.31
2018-04-14T09:35:34.900Z,48.24
2018-04-14T09:36:35.070Z,48.34
2018-04-14T09:37:34.883Z,48.29
2018-04-14T09:38:34.943Z,48.22
2018-04-14T09:39:34.886Z,48.23
2018-04-14T09:40:34.868Z,48.22
2018-04-14T09:41:34.990Z,48.18
2018-04-14T09:42:34.987Z,48.19
2018-04-14T09:43:34.889Z,48.2
2018-04-14T09:44:34.966Z,48.14
2018-04-14T09:45:35.040Z,48.16
2018-04-14T09:46:34.941Z,48.14
2018-04-14T09:47:35.023Z,48.07
2018-04-14T09:48:34.978Z,48.17
2018-04-14T09:49:34.944Z,48.12
2018-04-14T09:50:34.952Z,48.08
2018-04-14T09:51:34.898Z,48.13
2018-04-14T09:52:34.881Z,48.11
2018-04-14T09:53:34.870Z,48.03
2018-04-14T09:54:36.292Z,48.11
2018-04-14T09:55:34.871Z,48.09
2018-04-14T09:56:34.990Z,47.99
2018-04-14T09:57:34.829Z,48.15
2018-04-14T09:58:35.048Z,48.06
2018-04-14T09:59:34.932Z,47.93
2018-04-14T10:00:34.856Z,48.13
2018-04-14T10:01:34.893Z,48.08
2018-04-14T10:02:34.942Z,48
2018-04-14T10:03:35.137Z,48.17
2018-04-14T10:04:34.971Z,48.17
2018-04-14T10:05:34.949Z,48.07
2018-04-14T10:06:35.117Z,48.21
2018-04-14T10:07:34.928Z,48.17
2018-04-14T10:08:34.996Z,48.07
2018-04-14T10:09:35.071Z,48.28
2018-04-14T10:10:35.384Z,48.18
2018-04-14T10:11:34.803Z,48.08
2018-04-14T10:12:34.938Z,48.24
2018-04-14T10:13:35.178Z,48.17
2018-04-14T10:14:34.853Z,48.06
2018-04-14T10:15:35.081Z,48.22
2018-04-14T10:16:34.948Z,48.14
2018-04-14T10:17:34.930Z,48.09
2018-04-14T10:18:34.882Z,48.16
2018-04-14T10:19:34.917Z,48.12
2018-04-14T10:20:34.984Z,48.04
2018-04-14T10:21:35.108Z,48.17
2018-04-14T10:22:34.823Z,48.14
2018-04-14T10:23:34.995Z,48.06
2018-04-14T10:24:34.876Z,48.17
2018-04-14T10:25:34.873Z,48.08
2018-04-14T10:26:34.825Z,48.05
2018-04-14T10:27:34.914Z,48.16
2018-04-14T10:28:35.136Z,48.14
2018-04-14T10:29:35.022Z,48.04
2018-04-14T10:30:34.865Z,48.18
2018-04-14T10:31:34.971Z,48.1
2018-04-14T10:32:34.867Z,48.03
2018-04-14T10:33:34.845Z,48.25
2018-04-14T10:34:34.923Z,48.17
2018-04-14T10:35:35.021Z,48.08
2018-04-14T10:36:34.767Z,48.2
2018-04-14T10:37:34.958Z,48.16
2018-04-14T10:38:35.081Z,48.06
2018-04-14T10:39:34.802Z,48.23
2018-04-14T10:40:34.875Z,48.14
2018-04-14T10:41:35.028Z,48.07
2018-04-14T10:42:34.820Z,48.24
2018-04-14T10:43:35.064Z,48.19
2018-04-14T10:44:34.862Z,48.05
2018-04-14T10:45:34.932Z,48.19
2018-04-14T10:46:35.069Z,48.09
2018-04-14T10:47:34.981Z,48.05
2018-04-14T10:48:34.985Z,48.22
2018-04-14T10:49:35.044Z,48.13
2018-04-14T10:50:35.012Z,48.05
2018-04-14T10:51:34.865Z,48.22
2018-04-14T10:52:35.042Z,48.18
2018-04-14T10:53:34.894Z,47.99
2018-04-14T10:54:35.062Z,48.2
2018-04-14T10:55:34.871Z,48.14
2018-04-14T10:56:34.887Z,48.01
2018-04-14T10:57:34.903Z,48.18
2018-04-14T10:58:34.952Z,48.14
2018-04-14T10:59:35.030Z,48.05
2018-04-14T11:00:34.849Z,48.22
2018-04-14T11:01:35.078Z,48.15
2018-04-14T11:02:34.997Z,48.03
2018-04-14T11:03:34.809Z,48.15
2018-04-14T11:04:35.096Z,48.19
2018-04-14T11:05:35.074Z,48.28
2018-04-14T11:06:34.856Z,48.33
2018-04-14T11:07:34.875Z,48.23
2018-04-14T11:08:34.962Z,48.17
2018-04-14T11:09:35.075Z,48.15
2018-04-14T11:10:34.823Z,48.26
2018-04-14T11:11:34.986Z,48.2
2018-04-14T11:12:34.869Z,48.16
2018-04-14T11:13:35.006Z,48.26
2018-04-14T11:14:35.161Z,48.2
2018-04-14T11:15:34.795Z,48.21
2018-04-14T11:16:34.850Z,48.26
2018-04-14T11:17:34.939Z,48.24
2018-04-14T11:18:34.978Z,48.24
2018-04-14T11:19:34.925Z,48.33
2018-04-14T11:20:35.414Z,48.18
2018-04-14T11:21:34.875Z,48.21
2018-04-14T11:22:34.909Z,48.24
2018-04-14T11:23:34.920Z,48.19
2018-04-14T11:24:35.067Z,48.21
2018-04-14T11:25:35.025Z,48.23
2018-04-14T11:26:34.870Z,48.18
2018-04-14T11:27:34.979Z,48.21
2018-04-14T11:28:35.020Z,48.23
2018-04-14T11:29:35.037Z,48.17
2018-04-14T11:30:35.000Z,48.16
2018-04-14T11:31:34.876Z,48.15
2018-04-14T11:32:34.866Z,48.1
2018-04-14T11:33:34.981Z,48.14
2018-04-14T11:34:34.841Z,48.15
2018-04-14T11:35:34.808Z,48.12
2018-04-14T11:36:34.779Z,48.18
2018-04-14T11:37:34.792Z,48.17
2018-04-14T11:38:34.778Z,48.06
2018-04-14T11:39:34.930Z,48.11
2018-04-14T11:40:34.925Z,48.14
2018-04-14T11:41:34.934Z,48.1
2018-04-14T11:42:34.907Z,48.12
2018-04-14T11:43:34.810Z,48.11
2018-04-14T11:44:35.038Z,47.98
2018-04-14T11:45:34.768Z,48.06
2018-04-14T11:46:34.791Z,48.06
2018-04-14T11:47:34.965Z,48.06
2018-04-14T11:48:34.965Z,48.04
2018-04-14T11:49:34.791Z,48.03
2018-04-14T11:50:34.920Z,48.01
2018-04-14T11:51:34.853Z,47.99
2018-04-14T11:52:34.865Z,47.96
2018-04-14T11:53:34.784Z,47.88
2018-04-14T11:54:34.919Z,48.05
2018-04-14T11:55:35.024Z,48.02
2018-04-14T11:56:34.782Z,47.95
2018-04-14T11:57:34.926Z,48.08
2018-04-14T11:58:34.943Z,48.08
2018-04-14T11:59:35.151Z,47.98
2018-04-14T12:00:34.799Z,48.12
2018-04-14T12:01:34.923Z,48.04
2018-04-14T12:02:34.968Z,47.99
2018-04-14T12:03:34.756Z,48.16
2018-04-14T12:04:35.011Z,48.1
2018-04-14T12:05:35.010Z,47.99
2018-04-14T12:06:34.904Z,48.14
2018-04-14T12:07:34.911Z,48.09
2018-04-14T12:08:34.993Z,47.99
2018-04-14T12:09:34.795Z,48.14
2018-04-14T12:10:34.880Z,48.16
2018-04-14T12:11:34.828Z,47.98
2018-04-14T12:12:34.908Z,48.15
2018-04-14T12:13:34.939Z,48.12
2018-04-14T12:14:37.006Z,48.01
2018-04-14T12:15:34.863Z,48.16
2018-04-14T12:16:35.024Z,48.13
2018-04-14T12:17:34.809Z,48.06
2018-04-14T12:18:35.291Z,48.11
2018-04-14T12:19:34.830Z,48.12
2018-04-14T12:20:34.839Z,48.04
2018-04-14T12:21:34.982Z,48.21
2018-04-14T12:22:34.826Z,48.15
2018-04-14T12:23:35.030Z,48.05
2018-04-14T12:24:34.893Z,48.18
2018-04-14T12:25:34.892Z,48.13
2018-04-14T12:26:34.874Z,48.03
2018-04-14T12:27:34.934Z,48.19
2018-04-14T12:28:34.780Z,48.11
2018-04-14T12:29:34.863Z,47.99
2018-04-14T12:30:35.000Z,48.15
2018-04-14T12:31:34.886Z,48.16
2018-04-14T12:32:34.780Z,48.07
2018-04-14T12:33:34.986Z,48.21
2018-04-14T12:34:36.020Z,48.15
2018-04-14T12:35:34.946Z,48.07
2018-04-14T12:36:34.999Z,48.26
2018-04-14T12:37:34.981Z,48.17
2018-04-14T12:38:34.753Z,48.01
2018-04-14T12:39:34.907Z,48.22
2018-04-14T12:40:35.016Z,48.15
2018-04-14T12:41:35.030Z,48.06
2018-04-14T12:42:34.946Z,48.19
2018-04-14T12:43:34.925Z,48.14
2018-04-14T12:44:34.820Z,48.04
2018-04-14T12:45:34.988Z,48.17
2018-04-14T12:46:34.760Z,48.15
2018-04-14T12:47:34.949Z,48.05
2018-04-14T12:48:34.908Z,48.16
2018-04-14T12:49:34.805Z,48.1
2018-04-14T12:50:34.884Z,48.07
2018-04-14T12:51:34.901Z,48.17
2018-04-14T12:52:34.892Z,48.15
2018-04-14T12:53:34.784Z,48.03
2018-04-14T12:54:34.928Z,48.14
2018-04-14T12:55:34.853Z,48.1